Time;durP1;ratioP1;P1;durP2;ratioP2;P2;SDS_P1;SDS_P2;PMS_P1;PMS_P2;Temp;Humidity;BMP_temperature;BMP_pressure;BME280_temperature;BME280_humidity;BME280_pressure;Samples;Min_cycle;Max_cycle;Signal;HPM_P1;HPM_P2
2023/06/04 00:00:11;;;;;;;4.97;2.90;;;;;;;11.50;55.43;101985.72;5050563;28;20038;-83
2023/06/04 00:02:36;;;;;;;1.90;1.63;;;;;;;11.43;55.23;101979.38;5051640;28;20025;-82
2023/06/04 00:05:03;;;;;;;3.60;1.80;;;;;;;11.43;54.94;101984.75;5050044;28;20503;-82
2023/06/04 00:07:28;;;;;;;2.78;1.73;;;;;;;11.44;55.03;101983.75;5052741;28;20036;-82
2023/06/04 00:09:54;;;;;;;3.25;1.70;;;;;;;11.37;55.33;101979.03;5054711;28;20023;-82
2023/06/04 00:12:19;;;;;;;3.40;1.77;;;;;;;11.35;55.22;101978.38;5051844;28;20577;-82
2023/06/04 00:14:44;;;;;;;3.45;1.85;;;;;;;11.30;55.37;101974.53;5052458;28;20044;-82
2023/06/04 00:17:10;;;;;;;2.55;1.90;;;;;;;11.30;55.22;101971.84;5054153;28;20385;-82
2023/06/04 00:19:38;;;;;;;7.20;1.80;;;;;;;11.26;55.38;101967.78;5052233;28;20020;-82
2023/06/04 00:22:03;;;;;;;2.75;1.75;;;;;;;11.23;55.31;101974.38;5061554;28;20031;-83
2023/06/04 00:24:29;;;;;;;2.60;1.80;;;;;;;11.20;55.43;101974.72;5033374;28;20017;-82
2023/06/04 00:26:54;;;;;;;3.47;1.90;;;;;;;11.08;55.71;101976.94;5047273;28;20597;-83
2023/06/04 00:29:20;;;;;;;2.05;1.73;;;;;;;10.96;55.95;101968.38;5047579;28;20017;-83
2023/06/04 00:31:45;;;;;;;5.38;2.22;;;;;;;10.96;55.85;101976.47;5051280;28;20021;-82
2023/06/04 00:34:10;;;;;;;;;;;;;;;10.91;56.16;101976.16;5050536;28;20090;-82
2023/06/04 00:36:36;;;;;;;3.70;1.90;;;;;;;10.85;56.34;101968.75;5045484;28;19963;-82
2023/06/04 00:39:01;;;;;;;3.47;1.80;;;;;;;10.81;56.35;101970.09;5051313;28;20108;-82
2023/06/04 00:41:26;;;;;;;;;;;;;;;10.72;56.82;101975.50;5048629;28;20032;-82
2023/06/04 00:44:01;;;;;;;3.37;1.50;;;;;;;10.71;56.68;101970.28;5030434;28;20364;-82
2023/06/04 00:46:33;;;;;;;3.60;1.92;;;;;;;10.66;56.63;101968.09;5050695;28;20812;-82
2023/06/04 00:48:58;;;;;;;4.85;1.63;;;;;;;10.64;56.74;101967.44;5032370;28;20116;-82
2023/06/04 00:51:24;;;;;;;2.67;1.80;;;;;;;10.57;57.00;101969.13;5014548;28;20027;-81
2023/06/04 00:53:50;;;;;;;;;;;;;;;10.53;57.33;101973.16;5033303;28;20029;-82
2023/06/04 00:56:15;;;;;;;2.80;1.83;;;;;;;10.48;57.19;101964.75;5049494;28;19927;-81
2023/06/04 00:58:41;;;;;;;3.25;1.63;;;;;;;10.46;57.39;101968.44;5047952;28;20036;-81
2023/06/04 01:01:13;;;;;;;;;;;;;;;10.38;57.85;101975.66;5050549;28;20021;-79
2023/06/04 01:03:39;;;;;;;4.53;2.10;;;;;;;10.37;57.62;101969.44;5030805;28;19928;-82
2023/06/04 01:06:33;;;;;;;3.20;1.80;;;;;;;10.31;57.78;101970.09;5018809;28;20033;-82
2023/06/04 01:08:58;;;;;;;2.38;1.88;;;;;;;10.29;57.81;101972.13;5070391;28;20033;-81
2023/06/04 01:11:31;;;;;;;3.05;1.90;;;;;;;10.28;57.92;101970.44;5036769;28;20029;-82
2023/06/04 01:13:56;;;;;;;2.72;1.60;;;;;;;10.23;58.27;101970.94;5052309;28;20032;-83
2023/06/04 01:16:22;;;;;;;2.67;1.80;;;;;;;10.21;58.04;101972.94;5052836;28;20093;-83
2023/06/04 01:18:47;;;;;;;;;;;;;;;10.14;58.38;101980.84;5035276;28;20531;-83
2023/06/04 01:21:18;;;;;;;3.00;1.90;;;;;;;10.07;58.45;101977.13;5050876;28;19920;-81
2023/06/04 01:23:58;;;;;;;4.00;1.70;;;;;;;10.04;58.39;101977.50;5055598;28;20282;-82
2023/06/04 01:26:27;;;;;;;3.42;1.90;;;;;;;9.98;58.46;101980.81;5056090;28;20027;-82
2023/06/04 01:28:55;;;;;;;2.80;1.70;;;;;;;9.96;59.03;101978.31;5023144;28;20030;-82
2023/06/04 01:31:24;;;;;;;2.50;1.90;;;;;;;9.97;59.18;101971.06;5029597;28;20076;-81
2023/06/04 01:33:57;;;;;;;3.72;1.80;;;;;;;9.96;58.79;101977.47;5031262;28;20049;-83
2023/06/04 01:36:24;;;;;;;2.95;1.70;;;;;;;9.95;59.19;101976.63;5048573;28;20037;-82
2023/06/04 01:38:51;;;;;;;2.95;1.70;;;;;;;9.90;59.46;101975.41;5049651;28;20021;-83
2023/06/04 01:41:17;;;;;;;4.55;1.95;;;;;;;9.86;59.05;101972.22;5042386;28;20441;-83
2023/06/04 01:43:42;;;;;;;6.00;2.10;;;;;;;9.80;59.29;101968.34;5050866;28;20464;-83
2023/06/04 01:46:07;;;;;;;;;;;;;;;9.76;59.55;101969.69;5050032;28;20033;-82
2023/06/04 01:48:33;;;;;;;3.03;1.63;;;;;;;9.73;59.56;101972.69;5048121;28;20718;-83
2023/06/04 01:51:01;;;;;;;;;;;;;;;9.65;60.15;101967.31;5048685;28;20060;-81
2023/06/04 01:53:27;;;;;;;1.77;1.60;;;;;;;9.64;59.84;101968.31;5049100;28;20436;-82
2023/06/04 01:55:52;;;;;;;;;;;;;;;9.58;60.07;101969.81;5050401;28;20029;-82
2023/06/04 01:58:22;;;;;;;5.20;1.80;;;;;;;9.51;60.51;101966.94;5046026;28;20490;-83
2023/06/04 02:00:52;;;;;;;1.90;1.70;;;;;;;9.42;60.87;101970.56;5049691;28;20037;-82
2023/06/04 02:03:20;;;;;;;2.22;1.88;;;;;;;9.40;61.23;101973.44;5050075;28;20033;-83
2023/06/04 02:05:46;;;;;;;3.28;2.05;;;;;;;9.39;60.63;101965.50;5052921;28;20665;-82
2023/06/04 02:08:12;;;;;;;;;;;;;;;9.33;61.11;101972.38;5053732;28;20032;-83
2023/06/04 02:10:37;;;;;;;2.35;1.95;;;;;;;9.33;60.98;101966.19;5050580;28;20261;-83
2023/06/04 02:13:03;;;;;;;;;;;;;;;9.22;62.16;101973.50;5054489;28;20036;-82
2023/06/04 02:15:29;;;;;;;3.00;1.80;;;;;;;9.14;61.93;101969.94;5053230;28;19928;-83
2023/06/04 02:17:59;;;;;;;3.88;1.90;;;;;;;9.06;62.49;101970.72;5052890;28;20103;-83
2023/06/04 02:20:26;;;;;;;2.42;2.00;;;;;;;9.01;62.63;101968.53;5053007;28;20063;-82
2023/06/04 02:22:51;;;;;;;2.83;2.05;;;;;;;8.90;62.63;101966.94;5050879;28;20033;-82
2023/06/04 02:25:16;;;;;;;;;;;;;;;8.73;63.05;101965.16;5054841;28;20031;-83
2023/06/04 02:27:42;;;;;;;2.40;1.90;;;;;;;8.60;64.02;101969.09;5054608;28;19923;-83
2023/06/04 02:30:07;;;;;;;;;;;;;;;8.45;64.17;101968.78;5054769;28;20029;-83
2023/06/04 02:32:35;;;;;;;2.75;1.52;;;;;;;8.35;63.82;101968.03;5055820;28;19974;-83
2023/06/04 02:35:01;;;;;;;2.85;1.90;;;;;;;8.31;64.89;101961.28;5062337;28;20048;-80
2023/06/04 02:37:26;;;;;;;;;;;;;;;8.19;65.87;101964.22;5062992;28;20025;-82
2023/06/04 02:39:51;;;;;;;3.07;2.10;;;;;;;8.14;65.46;101966.50;5051802;28;19968;-81
2023/06/04 02:42:17;;;;;;;;;;;;;;;8.15;67.08;101968.19;5054369;28;20338;-82
2023/06/04 02:44:42;;;;;;;3.00;2.00;;;;;;;8.17;66.04;101963.53;5054198;28;20279;-83
2023/06/04 02:47:07;;;;;;;;;;;;;;;8.14;66.84;101966.50;5052220;28;20495;-82
2023/06/04 02:49:33;;;;;;;5.88;2.40;;;;;;;8.10;66.99;101969.66;5051642;28;19921;-82
2023/06/04 02:51:58;;;;;;;;;;;;;;;8.05;66.52;101972.78;5051882;28;20033;-82
2023/06/04 02:54:23;;;;;;;3.13;2.00;;;;;;;8.00;66.50;101959.81;5052664;28;19916;-81
2023/06/04 02:56:49;;;;;;;;;;;;;;;7.98;67.59;101967.16;5056650;28;20037;-83
2023/06/04 02:59:14;;;;;;;4.82;2.10;;;;;;;8.02;67.65;101968.56;5056599;28;20377;-83
2023/06/04 03:01:41;;;;;;;4.50;2.40;;;;;;;7.98;66.49;101967.16;5034901;28;20037;-81
2023/06/04 03:04:09;;;;;;;;;;;;;;;7.99;67.20;101960.81;5055209;28;20025;-82
2023/06/04 03:06:37;;;;;;;2.80;2.30;;;;;;;7.96;67.58;101969.16;5055289;28;19920;-82
2023/06/04 03:09:06;;;;;;;7.57;2.33;;;;;;;7.92;67.68;101974.97;5056192;28;20396;-82
2023/06/04 03:11:32;;;;;;;2.88;2.00;;;;;;;7.84;67.58;101970.38;5070136;28;20025;-81
2023/06/04 03:13:57;;;;;;;;;;;;;;;7.73;68.04;101974.97;5057393;28;20029;-82
2023/06/04 03:16:22;;;;;;;3.80;2.20;;;;;;;7.74;68.32;101979.34;5046845;28;19916;-83
2023/06/04 03:18:48;;;;;;;;;;;;;;;7.67;68.78;101980.91;5054770;28;20098;-82
2023/06/04 03:21:13;;;;;;;2.10;1.90;;;;;;;7.62;67.89;101977.84;5053726;28;20359;-82
2023/06/04 03:23:39;;;;;;;;;;;;;;;7.56;69.68;101978.47;5037071;28;20033;-81
2023/06/04 03:26:05;;;;;;;5.03;2.17;;;;;;;7.50;69.03;101973.69;5035016;28;19917;-81
2023/06/04 03:28:30;;;;;;;;;;;;;;;7.55;69.99;101971.41;5054536;28;20013;-82
2023/06/04 03:30:56;;;;;;;4.18;2.35;;;;;;;7.51;69.74;101978.88;5055032;28;19923;-81
2023/06/04 03:33:23;;;;;;;;;;;;;;;7.56;70.14;101971.25;5051200;28;20098;-82
2023/06/04 03:35:58;;;;;;;3.40;2.55;;;;;;;7.59;69.23;101970.09;5053126;28;19963;-82
2023/06/04 03:38:26;;;;;;;4.72;2.60;;;;;;;7.62;69.87;101971.66;5035403;28;20032;-81
2023/06/04 03:40:52;;;;;;;3.72;2.75;;;;;;;7.64;70.04;101965.13;5035907;28;20037;-82
2023/06/04 03:43:19;;;;;;;2.60;2.35;;;;;;;7.65;69.34;101966.00;5053940;28;20346;-81
2023/06/04 03:45:44;;;;;;;5.72;2.70;;;;;;;7.69;69.41;101970.91;5051782;28;20598;-82
2023/06/04 03:48:09;;;;;;;;;;;;;;;7.65;70.37;101969.50;5050929;28;20485;-82
2023/06/04 03:50:35;;;;;;;4.10;2.70;;;;;;;7.66;69.44;101973.88;5050517;28;19917;-82
2023/06/04 03:53:04;;;;;;;;;;;;;;;7.72;70.09;101972.44;5050604;28;20025;-82
2023/06/04 03:55:31;;;;;;;5.32;2.80;;;;;;;7.77;69.75;101974.66;5046329;28;19999;-82
2023/06/04 03:57:58;;;;;;;4.13;2.53;;;;;;;7.83;70.01;101977.59;5046911;28;20071;-82
2023/06/04 04:00:24;;;;;;;;;;;;;;;7.86;69.52;101974.59;5033780;28;20033;-84
2023/06/04 04:02:49;;;;;;;4.80;2.38;;;;;;;7.88;69.49;101977.13;5049998;28;19916;-82
2023/06/04 04:05:15;;;;;;;;;;;;;;;7.87;69.62;101983.50;5032631;28;20035;-82
2023/06/04 04:07:41;;;;;;;3.38;2.88;;;;;;;7.91;69.68;101974.16;5057147;28;19920;-82
2023/06/04 04:10:07;;;;;;;3.15;2.42;;;;;;;7.96;69.65;101977.19;5051503;28;20051;-82
2023/06/04 04:12:32;;;;;;;;;;;;;;;8.02;70.14;101981.97;5050758;28;20041;-82
2023/06/04 04:14:58;;;;;;;3.00;2.40;;;;;;;8.08;69.75;101971.63;5050352;28;19920;-82
2023/06/04 04:17:25;;;;;;;;;;;;;;;8.14;69.50;101981.72;5032539;28;20025;-83
2023/06/04 04:19:52;;;;;;;7.03;3.03;;;;;;;8.23;69.21;101986.19;5051124;28;20276;-82
2023/06/04 04:22:20;;;;;;;6.05;2.80;;;;;;;8.29;69.04;101980.22;5051736;28;20032;-82
2023/06/04 04:24:46;;;;;;;4.22;2.67;;;;;;;8.51;68.31;101986.13;5048914;28;20048;-83
2023/06/04 04:27:11;;;;;;;;;;;;;;;8.90;67.33;101990.28;5052058;28;20017;-83
2023/06/04 04:29:37;;;;;;;4.63;2.40;;;;;;;9.10;66.85;101989.03;5047725;28;19921;-83
2023/06/04 04:32:10;;;;;;;3.78;2.50;;;;;;;9.44;66.36;101979.31;5047609;28;20033;-83
2023/06/04 04:34:37;;;;;;;3.92;2.60;;;;;;;10.02;64.30;101988.41;5041644;28;20507;-83
2023/06/04 04:37:03;;;;;;;4.32;3.08;;;;;;;10.72;61.94;101997.06;5046530;28;20033;-82
2023/06/04 04:39:28;;;;;;;3.80;2.72;;;;;;;11.35;59.44;101994.56;5035753;28;20271;-82
2023/06/04 04:41:55;;;;;;;2.83;2.42;;;;;;;11.80;57.98;101996.72;5047317;28;20025;-82
2023/06/04 04:44:20;;;;;;;7.47;2.78;;;;;;;11.85;58.13;101988.09;5047306;28;20047;-83
2023/06/04 04:46:45;;;;;;;3.50;2.53;;;;;;;11.95;57.73;101986.84;5047702;28;20049;-83
2023/06/04 04:49:11;;;;;;;4.43;2.70;;;;;;;12.05;57.23;101989.38;5048332;28;20028;-83
2023/06/04 04:51:36;;;;;;;4.57;2.65;;;;;;;12.12;57.43;101984.09;5047291;28;20036;-83
2023/06/04 04:54:02;;;;;;;4.03;2.97;;;;;;;12.01;57.82;101979.94;5048101;28;20037;-83
2023/06/04 04:56:27;;;;;;;6.80;2.70;;;;;;;11.94;58.05;101985.19;5045227;28;20599;-82
2023/06/04 04:58:53;;;;;;;4.05;2.75;;;;;;;12.36;57.35;101995.69;5043636;28;20104;-82
2023/06/04 05:01:19;;;;;;;3.38;2.63;;;;;;;12.96;55.14;101995.84;5046344;28;20138;-83
2023/06/04 05:03:45;;;;;;;4.28;2.65;;;;;;;13.76;53.37;101993.44;5046834;28;20033;-83
2023/06/04 05:06:10;;;;;;;3.55;2.47;;;;;;;14.49;51.59;101995.19;5049676;28;20025;-82
2023/06/04 05:08:36;;;;;;;3.25;2.58;;;;;;;15.08;50.02;102006.72;5042143;28;20654;-83
2023/06/04 05:11:01;;;;;;;4.60;2.72;;;;;;;15.40;49.38;101999.84;5028180;28;20026;-82
2023/06/04 05:13:27;;;;;;;5.85;2.60;;;;;;;15.78;47.54;102003.94;5041610;28;20033;-83
2023/06/04 05:15:52;;;;;;;6.70;3.10;;;;;;;15.73;47.89;102004.56;5049660;28;20021;-83
2023/06/04 05:18:20;;;;;;;6.93;2.95;;;;;;;15.91;47.64;101997.75;5048514;28;20191;-83
2023/06/04 05:20:46;;;;;;;6.72;3.03;;;;;;;15.89;47.81;102005.28;5049111;28;20105;-83
2023/06/04 05:23:12;;;;;;;5.38;2.80;;;;;;;16.36;46.89;101989.06;5049416;28;20396;-84
2023/06/04 05:25:37;;;;;;;3.92;2.80;;;;;;;17.07;45.09;101997.63;5047726;28;20419;-83
2023/06/04 05:28:03;;;;;;;4.47;3.15;;;;;;;17.13;44.80;102004.94;5047807;28;20078;-83
2023/06/04 05:30:28;;;;;;;4.28;3.10;;;;;;;17.11;44.60;101997.00;5049790;28;20025;-83
2023/06/04 05:32:53;;;;;;;5.05;3.13;;;;;;;17.27;44.15;101994.88;5059507;28;20020;-84
2023/06/04 05:35:20;;;;;;;4.68;2.90;;;;;;;17.54;43.54;101992.03;5056685;28;20045;-83
2023/06/04 05:37:45;;;;;;;6.55;3.15;;;;;;;17.19;44.33;101998.66;5049701;28;20025;-83
2023/06/04 05:40:11;;;;;;;5.47;2.95;;;;;;;17.38;44.14;101996.91;5051896;28;20017;-83
2023/06/04 05:42:36;;;;;;;7.97;3.08;;;;;;;17.43;43.71;101999.00;5049361;28;20029;-84
2023/06/04 05:45:01;;;;;;;4.40;2.88;;;;;;;17.24;44.18;101996.13;5052047;28;20036;-84
2023/06/04 05:47:29;;;;;;;4.38;2.95;;;;;;;17.35;43.90;101997.34;5049064;28;20025;-83
2023/06/04 05:49:54;;;;;;;4.05;2.88;;;;;;;17.47;43.93;101992.06;5056669;28;20048;-84
2023/06/04 05:52:20;;;;;;;3.05;2.70;;;;;;;17.89;43.30;101991.66;5059595;28;20379;-84
2023/06/04 05:54:45;;;;;;;4.03;2.75;;;;;;;18.14;42.22;101993.66;5051514;28;20048;-84
2023/06/04 05:57:11;;;;;;;3.83;3.03;;;;;;;18.13;42.60;102000.16;5051289;28;20029;-77
2023/06/04 05:59:36;;;;;;;4.57;2.80;;;;;;;18.93;41.06;101996.75;5054831;28;20036;-83
2023/06/04 06:02:02;;;;;;;4.53;2.80;;;;;;;18.88;40.91;101993.03;5049585;28;20031;-83
2023/06/04 06:04:27;;;;;;;4.57;3.33;;;;;;;19.22;40.16;101991.69;5052337;28;20431;-83
2023/06/04 06:06:53;;;;;;;4.15;2.95;;;;;;;19.64;39.47;101984.66;5053167;28;20043;-83
2023/06/04 06:09:19;;;;;;;5.28;3.20;;;;;;;19.99;38.82;102001.25;5053057;28;20064;-83
2023/06/04 06:11:44;;;;;;;4.88;2.80;;;;;;;20.41;38.50;101988.59;5052430;28;20049;-83
2023/06/04 06:14:10;;;;;;;4.30;3.20;;;;;;;20.11;37.60;102006.75;5053031;28;20037;-83
2023/06/04 06:16:36;;;;;;;6.82;3.00;;;;;;;20.77;37.68;101996.88;5046514;28;20029;-82
2023/06/04 06:19:02;;;;;;;6.35;2.85;;;;;;;21.47;35.57;101995.13;5055043;28;20044;-85
2023/06/04 06:21:27;;;;;;;6.03;2.83;;;;;;;21.48;35.60;101997.59;5053938;28;20025;-83
2023/06/04 06:23:53;;;;;;;6.22;2.72;;;;;;;21.83;34.72;101995.84;5052784;28;20104;-83
2023/06/04 06:26:19;;;;;;;3.85;2.78;;;;;;;22.30;33.59;102005.75;5062426;28;20063;-84
2023/06/04 06:28:44;;;;;;;5.50;2.60;;;;;;;22.48;33.63;102004.69;5062618;28;20025;-83
2023/06/04 06:31:10;;;;;;;4.18;2.70;;;;;;;23.21;32.78;102006.59;5054051;28;20512;-83
2023/06/04 06:33:40;;;;;;;4.00;2.60;;;;;;;23.49;32.44;102009.44;5054315;28;20067;-86
2023/06/04 06:36:07;;;;;;;4.97;2.78;;;;;;;23.77;31.23;102013.88;5052452;28;20029;-81
2023/06/04 06:38:32;;;;;;;3.60;2.40;;;;;;;23.42;31.76;102013.22;5050266;28;20409;-83
2023/06/04 06:40:58;;;;;;;4.25;2.78;;;;;;;23.54;31.70;102010.34;5054445;28;20035;-85
2023/06/04 06:43:23;;;;;;;4.80;2.72;;;;;;;24.11;30.85;102012.88;5044882;28;20033;-84
2023/06/04 06:45:48;;;;;;;3.75;2.70;;;;;;;24.42;30.21;102013.16;5022161;23;20060;-84
2023/06/04 06:48:14;;;;;;;5.80;2.83;;;;;;;24.76;30.11;102022.00;5009964;28;20643;-84
2023/06/04 06:50:39;;;;;;;5.00;2.65;;;;;;;25.14;28.72;102021.94;5029708;28;20271;-85
2023/06/04 06:53:08;;;;;;;3.47;2.35;;;;;;;25.17;28.58;102026.91;5015506;28;20057;-83
2023/06/04 06:55:34;;;;;;;3.05;2.72;;;;;;;25.77;27.71;102028.56;5013059;28;20034;-85
2023/06/04 06:58:12;;;;;;;5.18;2.30;;;;;;;26.26;26.86;102032.81;5016368;28;20128;-79
2023/06/04 07:00:37;;;;;;;4.10;2.53;;;;;;;25.78;26.95;102028.28;5011852;28;20033;-78
2023/06/04 07:03:03;;;;;;;5.57;3.20;;;;;;;25.44;27.82;102042.50;5024192;28;20030;-78
2023/06/04 07:05:29;;;;;;;3.70;2.60;;;;;;;25.62;28.40;102034.84;5018341;28;20497;-84
2023/06/04 07:07:58;;;;;;;4.13;2.70;;;;;;;25.47;28.43;102039.22;5017085;28;20064;-81
2023/06/04 07:10:24;;;;;;;3.40;2.28;;;;;;;26.15;27.69;102038.31;5012066;28;20127;-79
2023/06/04 07:12:49;;;;;;;5.45;2.70;;;;;;;26.22;27.82;102037.22;5011031;28;20037;-80
2023/06/04 07:15:15;;;;;;;4.03;2.50;;;;;;;26.66;27.05;102042.19;5004516;28;20030;-81
2023/06/04 07:17:41;;;;;;;5.13;2.47;;;;;;;25.86;26.97;102036.03;4999060;28;20045;-81
2023/06/04 07:20:08;;;;;;;3.60;2.60;;;;;;;26.52;26.73;102039.19;5010286;28;20020;-79
2023/06/04 07:22:34;;;;;;;4.38;2.40;;;;;;;26.88;25.89;102033.63;5013615;28;20053;-81
2023/06/04 07:25:03;;;;;;;3.75;2.63;;;;;;;27.52;25.45;102038.72;5008069;28;20123;-81
2023/06/04 07:27:34;;;;;;;3.97;2.40;;;;;;;28.32;24.64;102045.16;5022469;28;20022;-81
2023/06/04 07:30:00;;;;;;;3.53;2.20;;;;;;;28.32;24.97;102042.41;5014735;28;20099;-81
2023/06/04 07:32:25;;;;;;;3.75;2.33;;;;;;;28.09;25.00;102043.91;5006101;28;20472;-81
2023/06/04 07:34:50;;;;;;;2.92;2.13;;;;;;;28.27;25.20;102045.22;5006366;28;20037;-81
2023/06/04 07:37:16;;;;;;;5.47;2.20;;;;;;;28.67;24.47;102042.38;5019771;28;20029;-81
2023/06/04 07:39:41;;;;;;;3.42;2.10;;;;;;;28.98;23.61;102053.16;5007603;28;20041;-80
2023/06/04 07:42:09;;;;;;;3.00;2.08;;;;;;;29.41;22.37;102053.25;5011412;28;20438;-81
2023/06/04 07:44:36;;;;;;;3.55;2.17;;;;;;;28.22;24.10;102048.84;5020588;28;20049;-81
2023/06/04 07:47:01;;;;;;;3.13;2.13;;;;;;;29.31;23.08;102042.25;5034015;28;20041;-81
2023/06/04 07:49:30;;;;;;;4.20;2.20;;;;;;;29.59;22.04;102046.09;5027486;28;20496;-81
2023/06/04 07:51:57;;;;;;;4.18;2.10;;;;;;;29.47;22.25;102043.75;5027580;28;20048;-80
2023/06/04 07:54:23;;;;;;;4.13;2.35;;;;;;;29.44;22.44;102052.69;5036216;28;20134;-79
2023/06/04 07:56:49;;;;;;;3.60;2.17;;;;;;;29.39;23.08;102057.47;5028767;28;20037;-78
2023/06/04 07:59:15;;;;;;;5.05;2.42;;;;;;;28.80;22.87;102047.25;5036533;28;20033;-79
2023/06/04 08:01:45;;;;;;;4.43;2.13;;;;;;;29.16;22.53;102055.19;5009740;28;20053;-79
2023/06/04 08:04:10;;;;;;;6.18;2.40;;;;;;;29.30;22.79;102054.50;5011235;28;20095;-79
2023/06/04 08:06:39;;;;;;;3.47;2.00;;;;;;;28.98;23.43;102058.72;5011925;28;20030;-79
2023/06/04 08:09:05;;;;;;;2.70;2.17;;;;;;;29.37;22.73;102049.44;5021206;28;20025;-80
2023/06/04 08:11:30;;;;;;;4.10;1.92;;;;;;;29.69;21.97;102049.84;5029193;28;20056;-80
2023/06/04 08:13:56;;;;;;;3.42;1.80;;;;;;;29.40;21.61;102046.06;5031708;28;20070;-80
2023/06/04 08:16:21;;;;;;;2.50;1.80;;;;;;;29.57;21.43;102053.06;5031445;28;20025;-80
2023/06/04 08:18:46;;;;;;;6.75;2.13;;;;;;;29.61;21.67;102051.34;5032808;28;20122;-80
2023/06/04 08:21:12;;;;;;;2.33;1.77;;;;;;;28.83;21.42;102046.66;5031052;28;20021;-80
2023/06/04 08:23:37;;;;;;;2.25;1.85;;;;;;;28.94;22.66;102046.59;5029718;28;20030;-80
2023/06/04 08:26:03;;;;;;;3.38;1.80;;;;;;;28.51;22.64;102047.22;5030000;28;20103;-80
2023/06/04 08:28:28;;;;;;;3.00;2.05;;;;;;;29.09;21.43;102049.19;5030635;28;20467;-78
2023/06/04 08:30:53;;;;;;;2.17;1.98;;;;;;;27.81;23.23;102051.84;5030049;28;20030;-78
2023/06/04 08:33:19;;;;;;;3.22;1.80;;;;;;;28.48;22.80;102045.84;5029644;28;20036;-79
2023/06/04 08:35:44;;;;;;;2.75;1.73;;;;;;;29.56;21.19;102045.88;5029860;28;20474;-79
2023/06/04 08:38:10;;;;;;;2.90;1.75;;;;;;;30.85;20.23;102058.59;5028945;28;20029;-78
2023/06/04 08:40:35;;;;;;;1.70;1.55;;;;;;;31.44;19.26;102057.19;5029912;28;20037;-79
2023/06/04 08:43:01;;;;;;;4.97;1.90;;;;;;;30.69;19.00;102060.84;5011622;28;20021;-79
2023/06/04 08:45:28;;;;;;;3.42;1.75;;;;;;;29.34;20.90;102056.38;5028633;28;20067;-79
2023/06/04 08:47:53;;;;;;;2.40;1.60;;;;;;;30.32;20.21;102056.16;5028536;28;20400;-79
2023/06/04 08:50:20;;;;;;;3.00;1.70;;;;;;;30.68;19.48;102053.63;5030087;28;20021;-79
2023/06/04 08:52:46;;;;;;;3.13;1.38;;;;;;;30.57;18.35;102054.94;5029495;28;20171;-79
2023/06/04 08:55:13;;;;;;;1.65;1.30;;;;;;;30.53;18.22;102065.00;5010914;28;20045;-79
2023/06/04 08:57:40;;;;;;;1.83;1.58;;;;;;;28.92;20.45;102057.94;5011796;28;20121;-79
2023/06/04 09:00:07;;;;;;;3.50;1.60;;;;;;;30.17;19.33;102060.84;5029435;28;20033;-79
2023/06/04 09:02:37;;;;;;;3.58;1.60;;;;;;;30.03;19.74;102062.72;5028683;28;20080;-79
2023/06/04 09:05:09;;;;;;;2.00;1.38;;;;;;;30.60;17.81;102067.41;5029666;28;20262;-79
2023/06/04 09:07:38;;;;;;;2.75;1.60;;;;;;;30.17;18.59;102068.34;5028638;28;20041;-79
2023/06/04 09:10:04;;;;;;;3.50;1.85;;;;;;;30.45;18.60;102063.69;5043687;28;20053;-79
2023/06/04 09:12:30;;;;;;;1.98;1.45;;;;;;;31.17;17.90;102063.56;5044563;28;20029;-79
2023/06/04 09:14:55;;;;;;;3.10;1.48;;;;;;;31.83;17.21;102061.38;5010934;28;20022;-79
2023/06/04 09:17:24;;;;;;;3.10;1.40;;;;;;;32.31;16.19;102065.56;5028440;28;20427;-79
2023/06/04 09:19:50;;;;;;;2.33;1.42;;;;;;;31.72;16.57;102059.97;5030012;28;20025;-80
2023/06/04 09:22:16;;;;;;;1.30;1.20;;;;;;;31.72;15.70;102057.19;5029960;28;20033;-80
2023/06/04 09:24:54;;;;;;;2.40;1.20;;;;;;;30.78;17.46;102060.13;5028204;28;20104;-78
2023/06/04 09:27:22;;;;;;;1.85;1.35;;;;;;;31.05;16.87;102051.00;5029268;28;20108;-79
2023/06/04 09:29:51;;;;;;;2.00;1.55;;;;;;;31.72;16.99;102051.63;5028431;28;20030;-79
2023/06/04 09:32:31;;;;;;;1.65;1.23;;;;;;;32.54;14.63;102053.56;5028059;28;20018;-79
2023/06/04 09:35:17;;;;;;;1.30;1.20;;;;;;;31.76;14.69;102058.22;5028870;28;20033;-79
2023/06/04 09:37:53;;;;;;;2.10;1.50;;;;;;;31.84;14.85;102048.28;5028258;28;20109;-79
2023/06/04 09:40:23;;;;;;;1.95;1.20;;;;;;;31.53;15.42;102060.88;5028641;28;20049;-79
2023/06/04 09:42:54;;;;;;;1.30;1.20;;;;;;;31.88;15.24;102054.84;5029536;28;20076;-79
2023/06/04 09:45:32;;;;;;;2.25;1.40;;;;;;;30.98;16.44;102048.63;5016389;28;20052;-79
2023/06/04 09:48:00;;;;;;;2.00;1.30;;;;;;;31.85;15.76;102056.31;5008727;28;20059;-79
2023/06/04 09:50:38;;;;;;;2.40;1.25;;;;;;;32.23;15.91;102057.09;5009644;28;20026;-79
2023/06/04 09:53:13;;;;;;;2.28;1.55;;;;;;;32.13;14.95;102050.63;5008223;28;20068;-79
2023/06/04 09:55:39;;;;;;;1.20;1.10;;;;;;;32.38;14.08;102062.31;5008110;28;20064;-78
2023/06/04 09:58:05;;;;;;;1.48;1.02;;;;;;;32.17;13.42;102051.66;5009495;28;20078;-78
2023/06/04 10:00:30;;;;;;;1.92;1.17;;;;;;;32.03;14.13;102050.88;4974497;28;20485;-78
2023/06/04 10:03:00;;;;;;;3.10;1.27;;;;;;;30.86;15.17;102048.31;4990589;28;20042;-78
2023/06/04 10:05:25;;;;;;;2.28;1.20;;;;;;;29.25;16.50;102046.22;5009722;28;20018;-79
2023/06/04 10:07:51;;;;;;;1.73;1.20;;;;;;;30.04;16.29;102045.75;4974797;28;20018;-79
2023/06/04 10:10:20;;;;;;;1.67;1.20;;;;;;;30.03;16.25;102043.28;5015189;28;20386;-79
2023/06/04 10:12:48;;;;;;;3.83;1.27;;;;;;;28.93;17.03;102047.69;5023690;28;20120;-79
2023/06/04 10:15:14;;;;;;;3.22;1.48;;;;;;;30.45;16.62;102052.59;4983469;28;20649;-79
2023/06/04 10:17:39;;;;;;;1.33;1.23;;;;;;;29.84;15.92;102055.19;5008685;28;20150;-79
2023/06/04 10:20:08;;;;;;;2.00;1.45;;;;;;;28.79;17.38;102045.59;5004702;28;20450;-79
2023/06/04 10:22:33;;;;;;;2.03;1.10;;;;;;;29.99;16.70;102045.84;5013863;28;20021;-80
2023/06/04 10:25:00;;;;;;;2.40;1.08;;;;;;;29.05;17.00;102045.34;5014323;28;20032;-79
2023/06/04 10:27:28;;;;;;;2.30;1.20;;;;;;;29.74;16.62;102053.38;5032216;28;20021;-78
2023/06/04 10:29:53;;;;;;;3.83;1.10;;;;;;;28.95;17.20;102042.66;5008137;28;20389;-79
2023/06/04 10:32:19;;;;;;;2.90;1.70;;;;;;;28.86;16.63;102042.47;4994854;28;20022;-79
2023/06/04 10:34:46;;;;;;;1.30;1.20;;;;;;;30.42;15.84;102046.81;5012545;28;20038;-79
2023/06/04 10:37:21;;;;;;;2.70;1.10;;;;;;;30.33;16.20;102041.97;5032521;28;20032;-79
2023/06/04 10:39:54;;;;;;;1.35;1.10;;;;;;;31.31;15.54;102042.16;5032440;28;20045;-79
2023/06/04 10:42:21;;;;;;;2.60;1.20;;;;;;;31.33;15.17;102034.31;5032498;28;20029;-80
2023/06/04 10:44:47;;;;;;;2.63;1.38;;;;;;;30.88;15.72;102037.72;5040978;28;20041;-79
2023/06/04 10:47:18;;;;;;;1.98;1.23;;;;;;;29.99;16.60;102051.41;5056372;28;20073;-79
2023/06/04 10:49:44;;;;;;;3.10;1.42;;;;;;;29.50;16.45;102054.25;5035642;28;20476;-79
2023/06/04 10:52:10;;;;;;;1.88;1.10;;;;;;;28.40;17.89;102047.31;5005352;28;20036;-80
2023/06/04 10:54:35;;;;;;;2.25;1.30;;;;;;;28.25;17.98;102036.34;5013671;28;20049;-79
2023/06/04 10:57:11;;;;;;;2.70;1.38;;;;;;;29.84;16.90;102037.69;5014284;28;20488;-79
2023/06/04 10:59:36;;;;;;;2.95;1.30;;;;;;;29.56;17.33;102040.31;5030910;28;20029;-79
2023/06/04 11:02:06;;;;;;;1.30;1.10;;;;;;;30.80;16.43;102032.84;5031023;28;20380;-79
2023/06/04 11:04:32;;;;;;;1.52;1.20;;;;;;;31.21;15.78;102037.63;5013590;28;20057;-80
2023/06/04 11:07:10;;;;;;;1.83;1.20;;;;;;;31.41;16.04;102035.56;5024698;28;20091;-79
2023/06/04 11:09:36;;;;;;;1.30;1.20;;;;;;;30.97;15.48;102033.06;5050655;28;20025;-79
2023/06/04 11:12:04;;;;;;;3.55;1.30;;;;;;;29.27;17.07;102032.91;5051864;28;20036;-79
2023/06/04 11:14:30;;;;;;;1.80;1.20;;;;;;;29.23;16.88;102021.53;5050910;28;20116;-79
2023/06/04 11:16:55;;;;;;;3.58;1.23;;;;;;;29.52;17.75;102020.66;5050556;28;20408;-79
2023/06/04 11:19:20;;;;;;;1.25;1.10;;;;;;;30.50;16.39;102029.47;5041974;28;20547;-80
2023/06/04 11:21:46;;;;;;;1.30;1.20;;;;;;;30.73;15.90;102027.69;5029675;28;20021;-79
2023/06/04 11:24:14;;;;;;;3.05;1.30;;;;;;;30.84;15.79;102017.19;5029948;28;20377;-80
2023/06/04 11:26:40;;;;;;;2.33;1.30;;;;;;;31.43;15.52;102017.41;5010650;28;20037;-80
2023/06/04 11:29:11;;;;;;;3.20;1.27;;;;;;;30.74;16.62;102017.38;5019701;28;20029;-80
2023/06/04 11:31:44;;;;;;;3.28;1.23;;;;;;;31.47;15.94;102025.94;5034293;28;20052;-79